Time,TemperatureF,DewpointF,PressureIn,WindDirection,WindDirectionDegrees,WindSpeedMPH,WindSpeedGustMPH,Humidity,HourlyPrecipIn,Conditions,Clouds,dailyrainin,SoftwareType,DateUTC
2013-02-20 00:02:00,18.9,15.0,29.88,WNW,302,2.0,4.0,86,0.00,,,0.00,weatherlink.com 1.10,2013-02-20 07:02:00,
2013-02-20 00:17:00,18.9,15.0,29.87,WNW,302,0.0,0.0,86,0.00,,,0.00,weatherlink.com 1.10,2013-02-20 07:17:00,
2013-02-20 00:32:00,19.0,15.0,29.88,NW,306,0.0,0.0,85,0.00,,,0.00,weatherlink.com 1.10,2013-02-20 07:32:00,
2013-02-20 00:47:00,18.7,15.0,29.88,NW,311,4.0,4.0,85,0.00,,,0.00,weatherlink.com 1.10,2013-02-20 07:47:00,
2013-02-20 01:17:00,18.9,16.0,29.88,NW,320,4.0,5.0,87,0.00,,,0.00,weatherlink.com 1.10,2013-02-20 08:17:00,
2013-02-20 01:32:00,19.4,16.0,29.89,NNW,344,2.0,4.0,87,0.00,,,0.00,weatherlink.com 1.10,2013-02-20 08:32:00,
2013-02-20 01:47:00,19.8,17.0,29.89,NW,313,2.0,3.0,87,0.00,,,0.00,weatherlink.com 1.10,2013-02-20 08:47:00,
2013-02-20 02:02:00,20.2,17.0,29.89,NNW,348,0.0,3.0,88,0.00,,,0.00,weatherlink.com 1.10,2013-02-20 09:02:00,
2013-02-20 02:17:00,20.5,18.0,29.90,NNW,335,1.0,4.0,88,0.00,,,0.00,weatherlink.com 1.10,2013-02-20 09:17:00,
2013-02-20 02:32:00,20.8,18.0,29.90,NNW,336,3.0,5.0,88,0.00,,,0.00,weatherlink.com 1.10,2013-02-20 09:32:00,
2013-02-20 02:47:00,20.8,18.0,29.90,NNW,330,4.0,6.0,87,0.00,,,0.00,weatherlink.com 1.10,2013-02-20 09:47:00,
2013-02-20 03:02:00,20.6,18.0,29.90,NW,325,4.0,6.0,88,0.00,,,0.00,weatherlink.com 1.10,2013-02-20 10:02:00,
2013-02-20 03:17:00,20.6,18.0,29.90,NNW,343,5.0,7.0,88,0.00,,,0.00,weatherlink.com 1.10,2013-02-20 10:17:00,
2013-02-20 03:32:00,20.8,18.0,29.89,North,360,6.0,7.0,87,0.00,,,0.00,weatherlink.com 1.10,2013-02-20 10:32:00,
2013-02-20 03:47:00,20.9,18.0,29.90,WNW,293,4.0,8.0,87,0.00,,,0.00,weatherlink.com 1.10,2013-02-20 10:47:00,
2013-02-20 04:02:00,20.8,17.0,29.90,WNW,300,5.0,8.0,86,0.00,,,0.00,weatherlink.com 1.10,2013-02-20 11:02:00,
2013-02-20 04:17:00,20.7,17.0,29.91,NW,317,2.0,6.0,87,0.00,,,0.00,weatherlink.com 1.10,2013-02-20 11:17:00,
2013-02-20 04:32:00,20.7,17.0,29.90,NNW,331,1.0,4.0,87,0.00,,,0.00,weatherlink.com 1.10,2013-02-20 11:32:00,
2013-02-20 04:47:00,20.7,17.0,29.91,NW,317,2.0,4.0,87,0.00,,,0.00,weatherlink.com 1.10,2013-02-20 11:47:00,
2013-02-20 05:02:00,20.9,17.0,29.91,NNW,347,0.0,3.0,86,0.00,,,0.00,weatherlink.com 1.10,2013-02-20 12:02:00,
2013-02-20 05:17:00,21.0,18.0,29.92,North,355,4.0,6.0,86,0.00,,,0.00,weatherlink.com 1.10,2013-02-20 12:17:00,
2013-02-20 05:32:00,21.1,18.0,29.92,North,350,3.0,5.0,86,0.00,,,0.00,weatherlink.com 1.10,2013-02-20 12:32:00,
2013-02-20 05:47:00,21.1,18.0,29.92,NNW,336,3.0,7.0,86,0.00,,,0.00,weatherlink.com 1.10,2013-02-20 12:47:00,
2013-02-20 06:02:00,20.8,17.0,29.93,NNW,338,3.0,7.0,86,0.00,,,0.00,weatherlink.com 1.10,2013-02-20 13:02:00,
2013-02-20 06:17:00,20.6,17.0,29.93,North,5,5.0,7.0,87,0.00,,,0.00,weatherlink.com 1.10,2013-02-20 13:17:00,
2013-02-20 06:32:00,20.6,18.0,29.94,North,5,3.0,6.0,88,0.00,,,0.00,weatherlink.com 1.10,2013-02-20 13:32:00,
2013-02-20 06:47:00,20.7,18.0,29.94,NNW,342,4.0,7.0,88,0.00,,,0.00,weatherlink.com 1.10,2013-02-20 13:47:00,
2013-02-20 07:02:00,20.7,18.0,29.95,North,5,3.0,8.0,89,0.00,,,0.00,weatherlink.com 1.10,2013-02-20 14:02:00,
2013-02-20 07:17:00,20.6,18.0,29.95,NNW,346,4.0,7.0,89,0.00,,,0.00,weatherlink.com 1.10,2013-02-20 14:17:00,
2013-02-20 07:32:00,20.7,18.0,29.95,NNW,338,0.0,7.0,89,0.00,,,0.00,weatherlink.com 1.10,2013-02-20 14:32:00,
2013-02-20 07:47:00,20.8,18.0,29.95,NW,326,0.0,7.0,89,0.00,,,0.00,weatherlink.com 1.10,2013-02-20 14:47:00,
2013-02-20 08:02:00,20.9,18.0,29.95,NNW,344,5.0,6.0,88,0.00,,,0.00,weatherlink.com 1.10,2013-02-20 15:02:00,
2013-02-20 08:17:00,21.1,18.0,29.96,NNW,338,1.0,5.0,88,0.00,,,0.00,weatherlink.com 1.10,2013-02-20 15:17:00,
2013-02-20 08:32:00,21.3,18.0,29.96,NNW,346,0.0,4.0,88,0.00,,,0.00,weatherlink.com 1.10,2013-02-20 15:32:00,
2013-02-20 08:47:00,21.6,19.0,29.96,NW,325,2.0,4.0,88,0.00,,,0.00,weatherlink.com 1.10,2013-02-20 15:47:00,
2013-02-20 09:02:00,21.8,19.0,29.96,NNW,348,3.0,5.0,88,0.00,,,0.00,weatherlink.com 1.10,2013-02-20 16:02:00,
2013-02-20 09:17:00,22.2,19.0,29.96,North,355,1.0,4.0,87,0.00,,,0.00,weatherlink.com 1.10,2013-02-20 16:17:00,
2013-02-20 09:32:00,22.6,19.0,29.96,NW,321,1.0,4.0,87,0.00,,,0.00,weatherlink.com 1.10,2013-02-20 16:32:00,
2013-02-20 09:47:00,23.4,20.0,29.96,NNE,13,2.0,4.0,85,0.00,,,0.00,weatherlink.com 1.10,2013-02-20 16:47:00,
2013-02-20 10:02:00,24.0,20.0,29.96,NNW,342,1.0,3.0,85,0.00,,,0.00,weatherlink.com 1.10,2013-02-20 17:02:00,
2013-02-20 10:33:00,24.7,21.0,29.96,North,360,2.0,3.0,84,0.00,,,0.00,weatherlink.com 1.10,2013-02-20 17:33:00,
2013-02-20 10:48:00,24.8,21.0,29.96,NW,326,0.0,1.0,85,0.00,,,0.00,weatherlink.com 1.10,2013-02-20 17:48:00,
2013-02-20 11:03:00,25.2,21.0,29.96,North,360,0.0,0.0,84,0.00,,,0.00,weatherlink.com 1.10,2013-02-20 18:03:00,
2013-02-20 11:18:00,25.6,21.0,29.96,NW,317,0.0,0.0,82,0.00,,,0.00,weatherlink.com 1.10,2013-02-20 18:18:00,
2013-02-20 11:33:00,25.8,21.0,29.96,NNW,329,0.0,0.0,81,0.00,,,0.00,weatherlink.com 1.10,2013-02-20 18:33:00,
2013-02-20 11:48:00,26.5,21.0,29.96,NNW,329,0.0,0.0,81,0.00,,,0.00,weatherlink.com 1.10,2013-02-20 18:48:00,
2013-02-20 12:03:00,27.0,21.0,29.96,NW,304,0.0,0.0,79,0.00,,,0.00,weatherlink.com 1.10,2013-02-20 19:03:00,
2013-02-20 12:18:00,27.5,22.0,29.95,NW,304,0.0,0.0,79,0.00,,,0.00,weatherlink.com 1.10,2013-02-20 19:18:00,
2013-02-20 12:33:00,29.2,22.0,29.95,WNW,302,0.0,0.0,75,0.00,,,0.00,weatherlink.com 1.10,2013-02-20 19:33:00,
2013-02-20 12:48:00,29.7,23.0,29.95,West,268,0.0,0.0,75,0.00,,,0.00,weatherlink.com 1.10,2013-02-20 19:48:00,
2013-02-20 13:03:00,30.1,22.0,29.94,West,261,0.0,0.0,73,0.00,,,0.00,weatherlink.com 1.10,2013-02-20 20:03:00,
2013-02-20 13:18:00,29.8,22.0,29.94,West,261,0.0,0.0,74,0.00,,,0.00,weatherlink.com 1.10,2013-02-20 20:18:00,
2013-02-20 13:33:00,30.2,23.0,29.94,West,262,0.0,0.0,73,0.00,,,0.00,weatherlink.com 1.10,2013-02-20 20:33:00,
2013-02-20 13:48:00,29.8,22.0,29.93,West,261,0.0,0.0,74,0.00,,,0.00,weatherlink.com 1.10,2013-02-20 20:48:00,
2013-02-20 14:03:00,29.8,22.0,29.93,West,261,0.0,0.0,74,0.00,,,0.00,weatherlink.com 1.10,2013-02-20 21:03:00,
2013-02-20 14:18:00,30.0,23.0,29.93,West,261,0.0,0.0,74,0.00,,,0.00,weatherlink.com 1.10,2013-02-20 21:18:00,
2013-02-20 14:33:00,30.7,23.0,29.92,West,260,0.0,0.0,74,0.00,,,0.00,weatherlink.com 1.10,2013-02-20 21:33:00,
2013-02-20 14:48:00,30.5,23.0,29.92,West,261,0.0,1.0,75,0.00,,,0.00,weatherlink.com 1.10,2013-02-20 21:48:00,
2013-02-20 15:03:00,31.2,24.0,29.91,West,260,0.0,0.0,74,0.00,,,0.00,weatherlink.com 1.10,2013-02-20 22:03:00,
2013-02-20 15:18:00,31.4,24.0,29.91,West,260,0.0,0.0,73,0.00,,,0.00,weatherlink.com 1.10,2013-02-20 22:18:00,
2013-02-20 15:33:00,31.6,24.0,29.91,WSW,257,0.0,3.0,72,0.00,,,0.00,weatherlink.com 1.10,2013-02-20 22:33:00,
2013-02-20 15:48:00,31.4,24.0,29.91,WSW,258,0.0,0.0,73,0.00,,,0.00,weatherlink.com 1.10,2013-02-20 22:48:00,
2013-02-20 16:03:00,30.6,23.0,29.91,WSW,244,1.0,2.0,74,0.00,,,0.00,weatherlink.com 1.10,2013-02-20 23:03:00,
2013-02-20 16:18:00,30.6,24.0,29.92,WSW,245,0.0,1.0,76,0.00,,,0.00,weatherlink.com 1.10,2013-02-20 23:18:00,
2013-02-20 16:33:00,31.6,24.0,29.92,WSW,244,0.0,0.0,73,0.00,,,0.00,weatherlink.com 1.10,2013-02-20 23:33:00,
2013-02-20 16:48:00,32.2,24.0,29.92,NW,323,0.0,0.0,73,0.00,,,0.00,weatherlink.com 1.10,2013-02-20 23:48:00,
2013-02-20 17:03:00,31.7,25.0,29.92,WNW,300,3.0,5.0,75,0.00,,,0.00,weatherlink.com 1.10,2013-02-21 00:03:00,
2013-02-20 17:18:00,30.6,24.0,29.93,North,351,1.0,4.0,76,0.00,,,0.00,weatherlink.com 1.10,2013-02-21 00:18:00,
2013-02-20 17:33:00,30.3,23.0,29.93,West,277,5.0,5.0,75,0.00,,,0.00,weatherlink.com 1.10,2013-02-21 00:33:00,
2013-02-20 17:48:00,28.9,23.0,29.93,North,355,2.0,4.0,79,0.00,,,0.00,weatherlink.com 1.10,2013-02-21 00:48:00,
2013-02-20 18:03:00,27.6,22.0,29.94,NNW,334,1.0,4.0,80,0.00,,,0.00,weatherlink.com 1.10,2013-02-21 01:03:00,
2013-02-20 18:18:00,26.6,22.0,29.94,NNW,342,0.0,6.0,81,0.00,,,0.00,weatherlink.com 1.10,2013-02-21 01:18:00,
2013-02-20 18:33:00,26.4,22.0,29.95,NW,308,2.0,5.0,82,0.00,,,0.00,weatherlink.com 1.10,2013-02-21 01:33:00,
2013-02-20 18:48:00,25.8,21.0,29.95,NNW,327,2.0,5.0,83,0.00,,,0.00,weatherlink.com 1.10,2013-02-21 01:48:00,
2013-02-20 19:03:00,25.4,21.0,29.95,WNW,298,4.0,4.0,82,0.00,,,0.00,weatherlink.com 1.10,2013-02-21 02:03:00,
2013-02-20 19:18:00,24.2,20.0,29.95,NW,305,2.0,4.0,85,0.00,,,0.00,weatherlink.com 1.10,2013-02-21 02:18:00,
2013-02-20 19:33:00,24.4,21.0,29.96,WNW,300,0.0,0.0,86,0.00,,,0.00,weatherlink.com 1.10,2013-02-21 02:33:00,
2013-02-20 19:48:00,24.5,21.0,29.96,NNE,18,0.0,0.0,87,0.00,,,0.00,weatherlink.com 1.10,2013-02-21 02:48:00,
2013-02-20 20:03:00,23.9,20.0,29.97,NNW,336,2.0,4.0,85,0.00,,,0.00,weatherlink.com 1.10,2013-02-21 03:03:00,
2013-02-20 20:18:00,23.3,20.0,29.98,NNW,335,0.0,0.0,85,0.00,,,0.00,weatherlink.com 1.10,2013-02-21 03:18:00,
2013-02-20 20:33:00,22.0,19.0,29.98,NW,310,2.0,3.0,87,0.00,,,0.00,weatherlink.com 1.10,2013-02-21 03:33:00,
2013-02-20 20:48:00,20.8,18.0,29.98,NW,306,1.0,4.0,88,0.00,,,0.00,weatherlink.com 1.10,2013-02-21 03:48:00,
2013-02-20 21:03:00,20.8,18.0,29.99,NW,311,3.0,5.0,90,0.00,,,0.00,weatherlink.com 1.10,2013-02-21 04:03:00,
2013-02-20 21:18:00,20.7,18.0,30.00,NW,305,0.0,0.0,89,0.00,,,0.00,weatherlink.com 1.10,2013-02-21 04:18:00,
2013-02-20 21:33:00,20.6,18.0,30.00,NW,305,0.0,0.0,89,0.00,,,0.00,weatherlink.com 1.10,2013-02-21 04:33:00,
2013-02-20 21:48:00,20.8,18.0,30.00,NW,305,0.0,0.0,90,0.00,,,0.00,weatherlink.com 1.10,2013-02-21 04:48:00,
2013-02-20 22:03:00,21.3,19.0,30.01,NW,305,0.0,0.0,90,0.00,,,0.00,weatherlink.com 1.10,2013-02-21 05:03:00,
2013-02-20 22:18:00,21.3,19.0,30.01,NW,305,0.0,0.0,90,0.00,,,0.00,weatherlink.com 1.10,2013-02-21 05:18:00,
2013-02-20 22:33:00,20.9,19.0,30.02,NW,305,0.0,0.0,90,0.00,,,0.00,weatherlink.com 1.10,2013-02-21 05:33:00,
2013-02-20 22:48:00,20.8,19.0,30.02,NW,305,0.0,0.0,91,0.00,,,0.00,weatherlink.com 1.10,2013-02-21 05:48:00,
2013-02-20 23:03:00,19.9,18.0,30.02,NW,306,0.0,0.0,90,0.00,,,0.00,weatherlink.com 1.10,2013-02-21 06:03:00,
2013-02-20 23:18:00,19.1,17.0,30.02,North,5,0.0,0.0,90,0.00,,,0.00,weatherlink.com 1.10,2013-02-21 06:18:00,
2013-02-20 23:33:00,18.0,16.0,30.02,North,355,0.0,0.0,90,0.00,,,0.00,weatherlink.com 1.10,2013-02-21 06:33:00,
2013-02-20 23:48:00,17.5,15.0,30.02,NW,312,0.0,0.0,90,0.00,,,0.00,weatherlink.com 1.10,2013-02-21 06:48:00,